createdAt,value
2019-01-13T00:00:48.105Z,4.80
2019-01-13T00:03:16.570Z,4.80
2019-01-13T00:05:45.433Z,4.80
2019-01-13T00:08:13.974Z,4.90
2019-01-13T00:10:42.895Z,4.90
2019-01-13T00:13:11.685Z,5.00
2019-01-13T00:15:40.114Z,5.00
2019-01-13T00:18:08.581Z,5.00
2019-01-13T00:20:37.026Z,5.00
2019-01-13T00:23:05.454Z,5.00
2019-01-13T00:25:33.885Z,5.00
2019-01-13T00:28:02.358Z,5.00
2019-01-13T00:30:30.785Z,5.00
2019-01-13T00:32:59.241Z,5.10
2019-01-13T00:35:27.855Z,5.10
2019-01-13T00:37:56.293Z,5.20
2019-01-13T00:40:25.083Z,5.20
2019-01-13T00:42:53.534Z,5.20
2019-01-13T00:45:22.320Z,5.20
2019-01-13T00:47:50.792Z,5.20
2019-01-13T00:50:19.401Z,5.20
2019-01-13T00:52:47.857Z,5.30
2019-01-13T00:55:17.049Z,5.30
2019-01-13T00:57:45.861Z,5.30
2019-01-13T01:00:26.471Z,5.30
2019-01-13T01:02:50.824Z,5.30
2019-01-13T01:05:19.426Z,5.30
2019-01-13T01:07:50.283Z,5.40
2019-01-13T01:10:19.853Z,5.30
2019-01-13T01:12:48.397Z,5.40
2019-01-13T01:15:17.277Z,5.40
2019-01-13T01:17:46.006Z,5.40
2019-01-13T01:20:16.308Z,5.40
2019-01-13T01:22:45.097Z,5.40
2019-01-13T01:25:16.269Z,5.50
2019-01-13T01:27:45.057Z,5.50
2019-01-13T01:30:19.130Z,5.50
2019-01-13T01:32:47.842Z,5.50
2019-01-13T01:35:17.529Z,5.50
2019-01-13T01:37:46.429Z,5.50
2019-01-13T01:40:17.682Z,5.50
2019-01-13T01:42:46.300Z,5.50
2019-01-13T01:45:16.781Z,5.50
2019-01-13T01:47:45.541Z,5.50
2019-01-13T01:50:14.936Z,5.50
2019-01-13T01:52:43.362Z,5.60
2019-01-13T01:55:17.089Z,5.50
2019-01-13T01:57:46.070Z,5.60
2019-01-13T02:00:19.646Z,5.60
2019-01-13T02:02:48.257Z,5.60
2019-01-13T02:05:17.106Z,5.60
2019-01-13T02:07:46.010Z,5.60
2019-01-13T02:10:19.335Z,5.60
2019-01-13T02:12:48.273Z,5.60
2019-01-13T02:15:23.327Z,5.70
2019-01-13T02:17:52.127Z,5.70
2019-01-13T02:20:22.108Z,5.70
2019-01-13T02:22:50.897Z,5.70
2019-01-13T02:25:22.641Z,5.70
2019-01-13T02:27:51.426Z,5.70
2019-01-13T02:30:22.582Z,5.80
2019-01-13T02:32:51.023Z,5.80
2019-01-13T02:35:19.556Z,5.80
2019-01-13T02:37:48.006Z,5.80
2019-01-13T02:40:21.725Z,5.80
2019-01-13T02:42:50.815Z,5.80
2019-01-13T02:45:25.129Z,5.80
2019-01-13T02:47:53.746Z,5.90
2019-01-13T02:50:22.550Z,5.90
2019-01-13T02:52:51.718Z,5.90
2019-01-13T02:55:20.477Z,5.90
2019-01-13T02:57:49.046Z,5.90
2019-01-13T03:00:24.846Z,5.90
2019-01-13T03:02:53.249Z,5.90
2019-01-13T03:05:21.677Z,5.90
2019-01-13T03:07:50.079Z,5.90
2019-01-13T03:10:20.970Z,5.90
2019-01-13T03:12:49.815Z,6.00
2019-01-13T03:15:23.695Z,6.00
2019-01-13T03:17:52.368Z,6.00
2019-01-13T03:20:20.846Z,6.00
2019-01-13T03:22:49.419Z,6.00
2019-01-13T03:25:20.201Z,6.10
2019-01-13T03:27:48.731Z,6.10
2019-01-13T03:30:19.950Z,6.10
2019-01-13T03:32:48.432Z,6.10
2019-01-13T03:35:18.623Z,6.10
2019-01-13T03:37:47.566Z,6.10
2019-01-13T03:40:18.131Z,6.10
2019-01-13T03:42:47.098Z,6.10
2019-01-13T03:45:15.850Z,6.10
2019-01-13T03:47:44.602Z,6.10
2019-01-13T03:50:18.774Z,6.10
2019-01-13T03:52:52.864Z,6.10
2019-01-13T03:55:20.048Z,6.10
2019-01-13T03:57:48.446Z,6.10
2019-01-13T04:00:19.339Z,6.10
2019-01-13T04:02:47.781Z,6.10
2019-01-13T04:05:16.363Z,6.10
2019-01-13T04:07:45.182Z,6.10
2019-01-13T04:10:15.823Z,6.10
2019-01-13T04:12:44.534Z,6.10
2019-01-13T04:15:16.082Z,6.10
2019-01-13T04:17:45.534Z,6.10
2019-01-13T04:20:13.950Z,6.10
2019-01-13T04:22:42.362Z,6.20
2019-01-13T04:25:10.761Z,6.20
2019-01-13T04:27:39.186Z,6.20
2019-01-13T04:30:10.680Z,6.20
2019-01-13T04:32:39.083Z,6.20
2019-01-13T04:35:08.635Z,6.20
2019-01-13T04:37:37.041Z,6.20
2019-01-13T04:40:10.612Z,6.20
2019-01-13T04:42:39.036Z,6.20
2019-01-13T04:45:09.968Z,6.20
2019-01-13T04:47:38.446Z,6.20
2019-01-13T04:50:13.094Z,6.20
2019-01-13T04:52:41.582Z,6.20
2019-01-13T04:55:10.727Z,6.20
2019-01-13T04:57:39.143Z,6.20
2019-01-13T05:00:13.566Z,6.20
2019-01-13T05:02:41.980Z,6.20
2019-01-13T05:05:10.766Z,6.20
2019-01-13T05:07:39.165Z,6.30
2019-01-13T05:10:10.784Z,6.30
2019-01-13T05:12:39.197Z,6.30
2019-01-13T05:15:08.556Z,6.30
2019-01-13T05:17:36.966Z,6.20
2019-01-13T05:20:08.586Z,6.20
2019-01-13T05:22:37.354Z,6.20
2019-01-13T05:25:07.791Z,6.30
2019-01-13T05:27:36.206Z,6.30
2019-01-13T05:30:08.019Z,6.30
2019-01-13T05:32:36.515Z,6.30
2019-01-13T05:35:05.110Z,6.30
2019-01-13T05:37:33.567Z,6.30
2019-01-13T05:40:02.014Z,6.30
2019-01-13T05:42:30.466Z,6.30
2019-01-13T05:44:58.923Z,6.30
2019-01-13T05:47:27.694Z,6.30
2019-01-13T05:49:56.127Z,6.30
2019-01-13T05:52:24.592Z,6.30
2019-01-13T05:54:53.042Z,6.30
2019-01-13T05:57:21.483Z,6.30
2019-01-13T05:59:50.303Z,6.30
2019-01-13T06:02:18.771Z,6.30
2019-01-13T06:04:47.214Z,6.30
2019-01-13T06:07:16.132Z,6.30
2019-01-13T06:09:44.938Z,6.30
2019-01-13T06:12:13.429Z,6.20
2019-01-13T06:14:41.959Z,6.20
2019-01-13T06:17:10.427Z,6.10
2019-01-13T06:19:38.882Z,6.10
2019-01-13T06:22:07.342Z,6.00
2019-01-13T06:24:35.819Z,6.10
2019-01-13T06:27:04.311Z,6.10
2019-01-13T06:29:32.777Z,6.10
2019-01-13T06:32:01.215Z,6.10
2019-01-13T06:34:29.667Z,6.10
2019-01-13T06:36:58.121Z,6.10
2019-01-13T06:39:26.560Z,6.20
2019-01-13T06:41:55.025Z,6.20
2019-01-13T06:44:23.488Z,6.30
2019-01-13T06:46:51.934Z,6.30
2019-01-13T06:49:20.678Z,6.30
2019-01-13T06:51:49.510Z,6.40
2019-01-13T06:54:17.974Z,6.40
2019-01-13T06:56:46.423Z,6.40
2019-01-13T06:59:14.889Z,6.40
2019-01-13T07:01:43.632Z,6.40
2019-01-13T07:04:12.098Z,6.50
2019-01-13T07:06:40.552Z,6.50
2019-01-13T07:09:08.998Z,6.50
2019-01-13T07:11:37.432Z,6.50
2019-01-13T07:14:05.909Z,6.50
2019-01-13T07:16:34.716Z,6.50
2019-01-13T07:19:03.510Z,6.60
2019-01-13T07:21:32.299Z,6.60
2019-01-13T07:24:00.778Z,6.60
2019-01-13T07:26:29.542Z,6.60
2019-01-13T07:28:58.007Z,6.60
2019-01-13T07:31:26.843Z,6.60
2019-01-13T07:33:55.283Z,6.60
2019-01-13T07:36:24.075Z,6.60
2019-01-13T07:38:52.540Z,6.60
2019-01-13T07:41:20.983Z,6.60
2019-01-13T07:43:49.440Z,6.60
2019-01-13T07:46:17.914Z,6.60
2019-01-13T07:48:46.392Z,6.60
2019-01-13T07:51:14.832Z,6.60
2019-01-13T07:53:44.377Z,6.60
2019-01-13T07:56:12.877Z,6.60
2019-01-13T07:58:41.330Z,6.60
2019-01-13T08:01:09.808Z,6.60
2019-01-13T08:03:38.275Z,6.60
2019-01-13T08:06:07.094Z,6.60
2019-01-13T08:08:35.751Z,6.60
2019-01-13T08:11:04.212Z,6.50
2019-01-13T08:13:32.663Z,6.50
2019-01-13T08:16:01.107Z,6.50
2019-01-13T08:18:29.547Z,6.40
2019-01-13T08:20:58.363Z,6.40
2019-01-13T08:23:26.825Z,6.30
2019-01-13T08:25:55.295Z,6.30
2019-01-13T08:28:24.099Z,6.30
2019-01-13T08:30:52.586Z,6.30
2019-01-13T08:33:21.036Z,6.20
2019-01-13T08:35:49.863Z,6.20
2019-01-13T08:38:18.311Z,6.20
2019-01-13T08:40:46.850Z,6.20
2019-01-13T08:43:15.309Z,6.20
2019-01-13T08:45:50.075Z,6.30
2019-01-13T08:48:13.923Z,6.20
2019-01-13T08:50:42.367Z,6.20
2019-01-13T08:53:10.842Z,6.20
2019-01-13T08:55:48.965Z,6.20
2019-01-13T08:58:17.508Z,6.20
2019-01-13T09:00:45.955Z,6.20
2019-01-13T09:03:14.472Z,6.20
2019-01-13T09:05:42.992Z,6.20
2019-01-13T09:08:11.740Z,6.20
2019-01-13T09:10:40.246Z,6.20
2019-01-13T09:13:08.685Z,6.30
2019-01-13T09:15:37.174Z,6.30
2019-01-13T09:18:05.811Z,6.30
2019-01-13T09:20:34.669Z,6.30
2019-01-13T09:23:04.376Z,6.30
2019-01-13T09:25:32.840Z,6.30
2019-01-13T09:28:01.307Z,6.40
2019-01-13T09:30:31.142Z,6.40
2019-01-13T09:32:59.867Z,6.40
2019-01-13T09:35:28.708Z,6.40
2019-01-13T09:37:57.818Z,6.50
2019-01-13T09:40:28.626Z,6.50
2019-01-13T09:42:58.309Z,6.40
2019-01-13T09:45:26.940Z,6.40
2019-01-13T09:47:55.411Z,6.40
2019-01-13T09:50:24.907Z,6.40
2019-01-13T09:52:53.853Z,6.40
2019-01-13T09:55:25.163Z,6.50
2019-01-13T09:57:54.150Z,6.50
2019-01-13T10:00:33.737Z,6.50
2019-01-13T10:03:02.582Z,6.40
2019-01-13T10:05:31.038Z,6.50
2019-01-13T10:07:59.467Z,6.50
2019-01-13T10:10:27.948Z,6.50
2019-01-13T10:12:56.472Z,6.50
2019-01-13T10:15:28.063Z,6.50
2019-01-13T10:17:56.543Z,6.50
2019-01-13T10:20:25.346Z,6.60
2019-01-13T10:22:53.896Z,6.60
2019-01-13T10:25:22.494Z,6.60
2019-01-13T10:27:51.142Z,6.60
2019-01-13T10:30:27.735Z,6.70
2019-01-13T10:32:56.489Z,6.70
2019-01-13T10:35:25.475Z,6.70
2019-01-13T10:37:54.196Z,6.70
2019-01-13T10:40:26.041Z,6.80
2019-01-13T10:42:54.749Z,6.90
2019-01-13T10:45:23.190Z,6.90
2019-01-13T10:47:52.024Z,6.90
2019-01-13T10:50:26.318Z,6.90
2019-01-13T10:52:56.495Z,6.80
2019-01-13T10:55:25.006Z,6.90
2019-01-13T10:57:53.479Z,6.90
2019-01-13T11:00:30.678Z,6.90
2019-01-13T11:03:02.254Z,6.90
2019-01-13T11:05:30.334Z,7.00
2019-01-13T11:07:58.798Z,7.00
2019-01-13T11:10:27.253Z,7.00
2019-01-13T11:12:55.698Z,7.00
2019-01-13T11:15:25.151Z,7.10
2019-01-13T11:17:53.627Z,7.10
2019-01-13T11:20:33.583Z,7.10
2019-01-13T11:23:02.495Z,7.20
2019-01-13T11:25:31.255Z,7.20
2019-01-13T11:27:59.739Z,7.20
2019-01-13T11:30:28.234Z,7.20
2019-01-13T11:32:56.709Z,7.30
2019-01-13T11:35:25.127Z,7.30
2019-01-13T11:37:53.566Z,7.30
2019-01-13T11:40:26.694Z,7.40
2019-01-13T11:42:55.247Z,7.30
2019-01-13T11:45:23.871Z,7.30
2019-01-13T11:47:52.695Z,7.30
2019-01-13T11:50:23.180Z,7.30
2019-01-13T11:52:51.995Z,7.30
2019-01-13T11:55:20.823Z,7.30
2019-01-13T11:57:49.631Z,7.30
2019-01-13T12:00:24.578Z,7.40
2019-01-13T12:02:53.044Z,7.40
2019-01-13T12:05:22.409Z,7.40
2019-01-13T12:07:51.271Z,7.30
2019-01-13T12:10:21.732Z,7.30
2019-01-13T12:12:50.702Z,7.30
2019-01-13T12:15:21.306Z,7.30
2019-01-13T12:17:49.753Z,7.30
2019-01-13T12:20:25.891Z,7.30
2019-01-13T12:22:54.425Z,7.30
2019-01-13T12:25:24.022Z,7.30
2019-01-13T12:27:54.303Z,7.30
2019-01-13T12:30:25.921Z,7.30
2019-01-13T12:32:54.717Z,7.40
2019-01-13T12:35:23.240Z,7.40
2019-01-13T12:37:51.723Z,7.40
2019-01-13T12:40:22.408Z,7.50
2019-01-13T12:42:51.477Z,7.60
2019-01-13T12:45:21.854Z,7.60
2019-01-13T12:47:50.665Z,7.60
2019-01-13T12:50:21.400Z,7.60
2019-01-13T12:52:50.221Z,7.60
2019-01-13T12:55:19.141Z,7.60
2019-01-13T12:57:47.903Z,7.60
2019-01-13T13:00:18.379Z,7.60
2019-01-13T13:02:46.829Z,7.60
2019-01-13T13:05:16.408Z,7.70
2019-01-13T13:07:46.167Z,7.60
2019-01-13T13:10:20.714Z,7.70
2019-01-13T13:12:49.210Z,7.70
2019-01-13T13:15:17.635Z,7.70
2019-01-13T13:17:46.082Z,7.60
2019-01-13T13:20:16.368Z,7.60
2019-01-13T13:22:45.088Z,7.70
2019-01-13T13:25:14.770Z,7.70
2019-01-13T13:27:43.207Z,7.70
2019-01-13T13:30:14.741Z,7.70
2019-01-13T13:32:43.705Z,7.80
2019-01-13T13:35:13.070Z,7.70
2019-01-13T13:37:42.347Z,7.70
2019-01-13T13:40:16.616Z,7.70
2019-01-13T13:42:45.414Z,7.70
2019-01-13T13:45:14.070Z,7.70
2019-01-13T13:47:42.510Z,7.70
2019-01-13T13:50:16.496Z,7.60
2019-01-13T13:52:45.016Z,7.60
2019-01-13T13:55:14.261Z,7.60
2019-01-13T13:57:43.039Z,7.60
2019-01-13T14:00:20.560Z,7.60
2019-01-13T14:02:49.010Z,7.60
2019-01-13T14:05:17.547Z,7.60
2019-01-13T14:07:45.998Z,7.70
2019-01-13T14:10:29.349Z,7.70
2019-01-13T14:12:58.197Z,7.80
2019-01-13T14:15:26.639Z,7.80
2019-01-13T14:17:55.081Z,7.80
2019-01-13T14:20:23.610Z,7.80
2019-01-13T14:22:52.042Z,7.80
2019-01-13T14:25:20.514Z,7.70
2019-01-13T14:27:48.973Z,7.70
2019-01-13T14:30:23.806Z,7.70
2019-01-13T14:32:52.518Z,7.80
2019-01-13T14:35:20.982Z,7.80
2019-01-13T14:37:49.888Z,7.80
2019-01-13T14:40:23.575Z,7.80
2019-01-13T14:42:52.398Z,7.80
2019-01-13T14:45:23.570Z,7.80
2019-01-13T14:47:52.188Z,7.80
2019-01-13T14:50:23.415Z,7.90
2019-01-13T14:52:52.579Z,7.90
2019-01-13T14:55:21.039Z,7.90
2019-01-13T14:57:49.471Z,8.00
2019-01-13T15:00:23.678Z,8.00
2019-01-13T15:02:52.835Z,8.10
2019-01-13T15:05:21.309Z,8.10
2019-01-13T15:07:49.750Z,8.10
2019-01-13T15:10:23.288Z,8.10
2019-01-13T15:12:52.578Z,8.10
2019-01-13T15:15:21.419Z,8.10
2019-01-13T15:17:49.851Z,8.10
2019-01-13T15:20:20.143Z,8.00
2019-01-13T15:22:51.614Z,8.10
2019-01-13T15:25:23.030Z,8.10
2019-01-13T15:27:51.537Z,8.00
2019-01-13T15:30:23.085Z,8.00
2019-01-13T15:32:51.585Z,8.00
2019-01-13T15:35:20.227Z,8.10
2019-01-13T15:37:48.994Z,8.10
2019-01-13T15:40:20.190Z,8.10
2019-01-13T15:42:49.643Z,8.00
2019-01-13T15:45:38.090Z,8.00
2019-01-13T15:48:06.862Z,8.00
2019-01-13T15:50:35.281Z,8.10
2019-01-13T15:53:04.250Z,8.10
2019-01-13T15:55:33.015Z,8.10
2019-01-13T15:58:01.693Z,8.10
2019-01-13T16:00:32.937Z,8.10
2019-01-13T16:03:01.339Z,8.10
2019-01-13T16:05:29.815Z,8.10
2019-01-13T16:07:58.228Z,8.10
2019-01-13T16:10:27.315Z,8.10
2019-01-13T16:12:56.081Z,8.20
2019-01-13T16:15:24.895Z,8.20
2019-01-13T16:17:54.169Z,8.20
2019-01-13T16:20:28.642Z,8.20
2019-01-13T16:22:57.218Z,8.20
2019-01-13T16:25:25.789Z,8.20
2019-01-13T16:27:54.335Z,8.20
2019-01-13T16:30:27.950Z,8.20
2019-01-13T16:32:56.401Z,8.20
2019-01-13T16:35:25.191Z,8.30
2019-01-13T16:37:53.782Z,8.30
2019-01-13T16:40:23.997Z,8.30
2019-01-13T16:42:52.422Z,8.30
2019-01-13T16:45:20.961Z,8.30
2019-01-13T16:47:49.401Z,8.30
2019-01-13T16:50:25.405Z,8.40
2019-01-13T16:52:55.082Z,8.40
2019-01-13T16:55:24.819Z,8.50
2019-01-13T16:57:53.525Z,8.50
2019-01-13T17:00:26.817Z,8.60
2019-01-13T17:02:55.420Z,8.60
2019-01-13T17:05:24.806Z,8.60
2019-01-13T17:07:53.962Z,8.60
2019-01-13T17:10:24.472Z,8.50
2019-01-13T17:12:52.907Z,8.50
2019-01-13T17:15:27.086Z,8.50
2019-01-13T17:17:57.396Z,8.50
2019-01-13T17:20:28.519Z,8.50
2019-01-13T17:22:57.067Z,8.50
2019-01-13T17:25:27.783Z,8.40
2019-01-13T17:27:56.302Z,8.40
2019-01-13T17:30:26.877Z,8.40
2019-01-13T17:32:55.349Z,8.50
2019-01-13T17:35:23.829Z,8.50
2019-01-13T17:37:52.359Z,8.40
2019-01-13T17:40:23.043Z,8.50
2019-01-13T17:42:52.026Z,8.50
2019-01-13T17:45:22.907Z,8.50
2019-01-13T17:47:51.912Z,8.50
2019-01-13T17:50:22.913Z,8.50
2019-01-13T17:52:51.359Z,8.50
2019-01-13T17:55:22.137Z,8.50
2019-01-13T17:57:50.862Z,8.50
2019-01-13T18:00:28.148Z,8.50
2019-01-13T18:02:59.537Z,8.50
2019-01-13T18:05:28.331Z,8.50
2019-01-13T18:07:56.795Z,8.50
2019-01-13T18:10:25.411Z,8.60
2019-01-13T18:12:53.867Z,8.60
2019-01-13T18:15:22.310Z,8.50
2019-01-13T18:17:53.999Z,8.50
2019-01-13T18:20:23.299Z,8.50
2019-01-13T18:22:51.818Z,8.60
2019-01-13T18:25:20.711Z,8.60
2019-01-13T18:27:49.623Z,8.60
2019-01-13T18:30:23.246Z,8.50
2019-01-13T18:32:51.734Z,8.50
2019-01-13T18:35:22.011Z,8.50
2019-01-13T18:37:50.564Z,8.50
2019-01-13T18:40:26.217Z,8.50
2019-01-13T18:42:55.151Z,8.40
2019-01-13T18:45:23.668Z,8.40
2019-01-13T18:47:53.274Z,8.40
2019-01-13T18:50:24.213Z,8.30
2019-01-13T18:53:10.801Z,8.30
2019-01-13T18:55:43.645Z,8.30
2019-01-13T18:58:12.853Z,8.30
2019-01-13T19:00:42.434Z,8.30
2019-01-13T19:03:10.918Z,8.30
2019-01-13T19:05:44.622Z,8.30
2019-01-13T19:08:15.060Z,8.30
2019-01-13T19:10:53.145Z,8.30
2019-01-13T19:13:44.105Z,8.40
2019-01-13T19:16:19.431Z,8.40
2019-01-13T19:18:50.012Z,8.50
2019-01-13T19:21:18.692Z,8.50
2019-01-13T19:23:48.867Z,8.50
2019-01-13T19:26:18.923Z,8.60
2019-01-13T19:28:51.139Z,8.60
2019-01-13T19:31:19.661Z,8.60
2019-01-13T19:33:48.311Z,8.60
2019-01-13T19:36:16.783Z,8.60
2019-01-13T19:38:45.250Z,8.60
2019-01-13T19:41:14.074Z,8.60
2019-01-13T19:43:44.491Z,8.70
2019-01-13T19:46:12.918Z,8.60
2019-01-13T19:48:41.359Z,8.60
2019-01-13T19:51:09.807Z,8.70
2019-01-13T19:53:38.609Z,8.70
2019-01-13T19:56:07.106Z,8.70
2019-01-13T19:58:35.603Z,8.70
2019-01-13T20:01:04.045Z,8.70
2019-01-13T20:03:32.504Z,8.60
2019-01-13T20:06:00.931Z,8.60
2019-01-13T20:08:29.716Z,8.50
2019-01-13T20:10:58.155Z,8.50
2019-01-13T20:13:26.697Z,8.50
2019-01-13T20:15:55.166Z,8.40
2019-01-13T20:18:23.611Z,8.40
2019-01-13T20:20:57.777Z,8.40
2019-01-13T20:23:26.241Z,8.40
2019-01-13T20:25:54.671Z,8.40
2019-01-13T20:28:23.118Z,8.40
2019-01-13T20:30:51.572Z,8.30
2019-01-13T20:33:20.057Z,8.30
2019-01-13T20:35:48.500Z,8.30
2019-01-13T20:38:17.013Z,8.40
2019-01-13T20:40:45.482Z,8.30
2019-01-13T20:43:14.146Z,8.30
2019-01-13T20:45:42.663Z,8.30
2019-01-13T20:48:11.106Z,8.30
2019-01-13T20:50:39.615Z,8.30
2019-01-13T20:53:08.327Z,8.30
2019-01-13T20:55:37.055Z,8.30
2019-01-13T20:58:06.050Z,8.30
2019-01-13T21:00:34.655Z,8.30
2019-01-13T21:03:03.246Z,8.30
2019-01-13T21:05:31.706Z,8.30
2019-01-13T21:08:00.150Z,8.30
2019-01-13T21:10:28.635Z,8.30
2019-01-13T21:12:57.566Z,8.20
2019-01-13T21:15:31.642Z,8.20
2019-01-13T21:18:00.080Z,8.20
2019-01-13T21:20:28.894Z,8.20
2019-01-13T21:22:57.814Z,8.10
2019-01-13T21:25:26.373Z,8.20
2019-01-13T21:27:56.464Z,8.10
2019-01-13T21:30:27.446Z,8.10
2019-01-13T21:32:55.985Z,8.20
2019-01-13T21:35:24.826Z,8.20
2019-01-13T21:37:53.304Z,8.10
2019-01-13T21:40:21.803Z,8.10
2019-01-13T21:42:50.776Z,8.20
2019-01-13T21:45:24.035Z,8.20
2019-01-13T21:47:52.568Z,8.20
2019-01-13T21:50:23.676Z,8.20
2019-01-13T21:52:52.300Z,8.20
2019-01-13T21:55:21.004Z,8.20
2019-01-13T21:57:49.448Z,8.30
2019-01-13T22:00:26.111Z,8.30
2019-01-13T22:02:55.369Z,8.30
2019-01-13T22:05:24.203Z,8.30
2019-01-13T22:07:52.658Z,8.30
2019-01-13T22:10:23.505Z,8.30
2019-01-13T22:12:52.699Z,8.30
2019-01-13T22:15:22.488Z,8.30
2019-01-13T22:17:51.015Z,8.30
2019-01-13T22:20:21.718Z,8.30
2019-01-13T22:22:51.258Z,8.30
2019-01-13T22:25:20.350Z,8.20
2019-01-13T22:27:55.790Z,8.20
2019-01-13T22:30:24.343Z,8.10
2019-01-13T22:32:52.771Z,8.20
2019-01-13T22:35:21.234Z,8.10
2019-01-13T22:37:55.585Z,8.20
2019-01-13T22:40:19.839Z,8.10
2019-01-13T22:42:48.294Z,8.10
2019-01-13T22:45:19.276Z,8.10
2019-01-13T22:47:47.738Z,8.10
2019-01-13T22:50:17.232Z,8.10
2019-01-13T22:52:46.829Z,8.20
2019-01-13T22:55:15.887Z,8.20
2019-01-13T22:57:44.398Z,8.20
2019-01-13T23:00:38.289Z,8.20
2019-01-13T23:03:08.372Z,8.20
2019-01-13T23:05:36.854Z,8.20
2019-01-13T23:08:05.274Z,8.20
2019-01-13T23:10:33.782Z,8.20
2019-01-13T23:13:02.222Z,8.20
2019-01-13T23:15:31.079Z,8.20
2019-01-13T23:17:59.854Z,8.20
2019-01-13T23:20:28.282Z,8.20
2019-01-13T23:22:56.739Z,8.10
2019-01-13T23:25:25.186Z,7.40
2019-01-13T23:27:53.694Z,6.80
2019-01-13T23:30:22.458Z,6.50
2019-01-13T23:32:50.922Z,6.30
2019-01-13T23:35:19.367Z,6.20
2019-01-13T23:37:47.806Z,6.20
2019-01-13T23:40:16.781Z,6.30
2019-01-13T23:42:45.253Z,6.30
2019-01-13T23:45:14.083Z,6.40
2019-01-13T23:47:42.646Z,6.50
2019-01-13T23:50:11.348Z,6.50
2019-01-13T23:52:39.891Z,6.60
2019-01-13T23:55:08.347Z,6.70
2019-01-13T23:57:37.127Z,6.70
